Time;durP1;ratioP1;P1;durP2;ratioP2;P2;SDS_P1;SDS_P2;PMS_P1;PMS_P2;Temp;Humidity;BMP_temperature;BMP_pressure;BME280_temperature;BME280_humidity;BME280_pressure;Samples;Min_cycle;Max_cycle;Signal;HPM_P1;HPM_P2
2022/09/16 00:03:18;;;;;;;2.28;1.27;;;;;;;19.92;63.62;96171.38;10553890;28;20044;-28
2022/09/16 00:08:20;;;;;;;3.70;1.50;;;;;;;19.91;63.53;96167.16;10553422;28;20028;-27
2022/09/16 00:13:20;;;;;;;3.00;1.38;;;;;;;19.90;63.42;96166.31;10555103;28;20035;-31
2022/09/16 00:18:21;;;;;;;2.53;1.60;;;;;;;19.90;63.63;96165.47;10553727;28;20441;-27
2022/09/16 00:23:21;;;;;;;2.47;1.93;;;;;;;19.88;63.57;96160.41;10552894;28;20380;-27
2022/09/16 00:28:22;;;;;;;1.50;1.40;;;;;;;19.87;63.59;96163.81;10556796;28;20297;-29
2022/09/16 00:33:23;;;;;;;1.70;1.45;;;;;;;19.86;63.58;96156.22;10539818;28;20350;-27
2022/09/16 00:38:23;;;;;;;5.45;1.30;;;;;;;19.89;63.35;96166.31;10554426;28;20043;-27
2022/09/16 00:43:24;;;;;;;4.33;1.50;;;;;;;19.87;63.36;96168.06;10553832;28;20368;-29
2022/09/16 00:48:29;;;;;;;1.63;1.33;;;;;;;19.86;63.17;96176.53;10544911;28;20035;-27
2022/09/16 00:53:40;;;;;;;3.35;1.95;;;;;;;19.82;63.34;96177.44;10550969;28;20048;-27
2022/09/16 00:58:47;;;;;;;2.17;1.40;;;;;;;19.82;63.13;96169.81;10543193;28;20143;-28
2022/09/16 01:03:55;;;;;;;2.33;1.70;;;;;;;19.82;63.23;96174.88;10565935;28;20071;-27
2022/09/16 01:08:56;;;;;;;2.00;1.38;;;;;;;19.81;63.19;96166.44;10559020;28;20050;-27
2022/09/16 01:14:51;;;;;;;1.73;1.60;;;;;;;19.80;63.18;96164.78;10564430;28;20088;-31
2022/09/16 01:19:19;;;;;;;2.60;1.58;;;;;;;19.79;62.97;96164.78;10564638;28;20044;-28
2022/09/16 01:24:58;;;;;;;3.50;1.50;;;;;;;19.80;63.08;96156.28;10560217;28;20043;-27
2022/09/16 01:30:20;;;;;;;4.20;1.48;;;;;;;19.83;62.92;96153.72;10555237;28;20036;-27
2022/09/16 01:35:34;;;;;;;4.03;1.52;;;;;;;19.85;63.04;96160.44;10565241;28;20110;-28
2022/09/16 01:41:22;;;;;;;3.50;1.52;;;;;;;19.80;63.00;96152.06;10562285;28;20605;-26
2022/09/16 01:46:47;;;;;;;3.22;1.90;;;;;;;19.79;62.85;96152.06;10548442;28;20166;-30
2022/09/16 01:51:59;;;;;;;4.25;2.00;;;;;;;19.78;62.72;96158.03;10543549;28;20074;-27
2022/09/16 01:57:06;;;;;;;2.92;2.05;;;;;;;19.75;62.77;96153.00;10566829;28;20135;-27
2022/09/16 02:02:28;;;;;;;2.13;1.92;;;;;;;19.75;62.80;96150.47;10548259;28;20032;-27
2022/09/16 02:07:32;;;;;;;3.58;2.03;;;;;;;19.75;62.48;96153.00;10553981;28;20036;-27
2022/09/16 02:12:39;;;;;;;2.55;2.00;;;;;;;19.75;62.76;96148.75;10560190;28;20032;-28
2022/09/16 02:17:43;;;;;;;3.10;1.70;;;;;;;19.73;62.75;96142.84;10544892;28;20040;-27
2022/09/16 02:22:48;;;;;;;2.40;1.65;;;;;;;19.75;62.71;96150.47;10560716;28;20031;-27
2022/09/16 02:27:52;;;;;;;3.25;2.35;;;;;;;19.80;62.50;96144.44;10558768;28;20088;-27
2022/09/16 02:33:01;;;;;;;2.53;1.70;;;;;;;19.80;62.28;96141.06;10556181;28;20032;-27
2022/09/16 02:38:19;;;;;;;5.15;2.03;;;;;;;19.75;62.37;96142.84;10558263;28;20032;-27
2022/09/16 02:43:19;;;;;;;4.63;2.00;;;;;;;19.72;62.41;96133.56;10555582;28;20043;-27
2022/09/16 02:48:30;;;;;;;4.43;1.90;;;;;;;19.71;62.53;96131.88;10551369;28;20568;-27
2022/09/16 02:53:45;;;;;;;2.45;2.20;;;;;;;19.68;62.57;96126.81;10551737;28;20027;-28
2022/09/16 02:58:45;;;;;;;5.25;2.35;;;;;;;19.67;62.65;96124.31;10553451;28;20039;-27
2022/09/16 03:03:46;;;;;;;5.97;1.80;;;;;;;19.68;62.59;96115.84;10558143;28;20036;-27
2022/09/16 03:08:48;;;;;;;5.25;1.85;;;;;;;19.69;62.30;96112.44;10552947;28;20168;-27
2022/09/16 03:14:06;;;;;;;1.77;1.55;;;;;;;19.67;62.50;96104.00;10557114;28;20036;-26
2022/09/16 03:19:33;;;;;;;2.08;1.88;;;;;;;19.73;62.39;96103.91;10555820;28;20078;-27
2022/09/16 03:24:50;;;;;;;2.70;1.55;;;;;;;19.74;62.26;96092.88;10550685;28;20042;-27
2022/09/16 03:30:02;;;;;;;2.78;1.60;;;;;;;19.68;62.69;96090.44;10542911;28;20036;-28
2022/09/16 03:35:15;;;;;;;4.53;1.92;;;;;;;19.66;62.59;96093.00;10558877;28;20055;-27
2022/09/16 03:40:18;;;;;;;2.50;1.60;;;;;;;19.66;62.57;96077.75;10553277;28;20104;-27
2022/09/16 03:45:20;;;;;;;2.33;2.13;;;;;;;19.67;62.48;96083.69;10523374;28;20047;-27
2022/09/16 03:50:20;;;;;;;5.32;1.92;;;;;;;19.65;62.64;96081.16;10510478;28;20097;-27
2022/09/16 03:55:21;;;;;;;2.13;1.95;;;;;;;19.64;62.79;96083.72;10545016;28;20540;-27
2022/09/16 04:00:22;;;;;;;2.80;2.05;;;;;;;19.66;62.63;96092.19;10530302;28;20024;-27
2022/09/16 04:05:22;;;;;;;3.88;1.75;;;;;;;19.66;62.69;96076.94;10547728;28;20042;-27
2022/09/16 04:10:23;;;;;;;3.00;2.15;;;;;;;19.69;62.72;96069.25;10553932;28;20035;-27
2022/09/16 04:15:23;;;;;;;2.40;1.87;;;;;;;19.80;62.44;96072.47;10548368;28;20036;-27
2022/09/16 04:20:23;;;;;;;2.23;1.70;;;;;;;19.77;62.55;96072.53;10552518;28;20032;-27
2022/09/16 04:25:24;;;;;;;2.83;2.47;;;;;;;19.73;62.63;96065.81;10551544;28;20032;-28
2022/09/16 04:30:24;;;;;;;2.60;2.00;;;;;;;19.73;62.48;96068.34;10547431;28;20312;-29
2022/09/16 04:35:25;;;;;;;2.65;1.80;;;;;;;19.69;62.55;96061.66;10550191;28;20096;-28
2022/09/16 04:40:25;;;;;;;4.27;1.93;;;;;;;19.70;62.70;96068.41;10546105;28;20495;-27
2022/09/16 04:45:26;;;;;;;4.67;2.20;;;;;;;19.67;62.90;96069.28;10542691;28;20046;-29
2022/09/16 04:50:26;;;;;;;2.55;2.08;;;;;;;19.67;62.73;96068.47;10549415;28;20513;-28
2022/09/16 04:55:27;;;;;;;3.73;1.97;;;;;;;19.67;62.89;96068.47;10548398;28;20152;-28
2022/09/16 05:00:27;;;;;;;2.53;2.00;;;;;;;19.65;62.83;96065.06;10549170;28;20069;-28
2022/09/16 05:05:28;;;;;;;2.90;1.88;;;;;;;19.67;62.97;96060.84;10549181;28;20084;-29
2022/09/16 05:10:28;;;;;;;2.17;1.80;;;;;;;19.72;62.94;96071.75;10552173;28;20096;-29
2022/09/16 05:15:28;;;;;;;2.50;2.10;;;;;;;19.67;62.62;96065.91;10544628;28;20282;-28
2022/09/16 05:20:29;;;;;;;4.90;2.63;;;;;;;19.67;62.70;96073.53;10549900;28;20605;-28
2022/09/16 05:25:29;;;;;;;2.60;2.10;;;;;;;19.64;62.99;96068.47;10553101;28;20040;-27
2022/09/16 05:30:29;;;;;;;5.10;2.70;;;;;;;19.54;63.15;96072.03;10539532;28;20123;-28
2022/09/16 05:35:30;;;;;;;4.20;2.80;;;;;;;19.59;63.02;96065.19;10552171;28;20031;-27
2022/09/16 05:40:30;;;;;;;6.03;3.20;;;;;;;19.57;63.06;96077.03;10550978;28;20028;-28
2022/09/16 05:45:30;;;;;;;3.93;3.00;;;;;;;19.56;63.40;96083.00;10543519;28;20039;-30
2022/09/16 05:50:31;;;;;;;5.67;3.07;;;;;;;19.55;63.14;96084.72;10555081;28;20040;-27
2022/09/16 05:55:31;;;;;;;3.40;2.70;;;;;;;19.54;63.14;96079.63;10558996;28;20034;-28
2022/09/16 06:00:31;;;;;;;3.40;2.70;;;;;;;19.57;63.39;96087.19;10559398;28;20031;-28
2022/09/16 06:05:33;;;;;;;3.37;3.00;;;;;;;19.61;63.09;96087.13;10554547;28;20044;-29
2022/09/16 06:10:38;;;;;;;4.30;2.40;;;;;;;19.66;62.93;96089.63;10546962;28;20036;-28
2022/09/16 06:15:38;;;;;;;4.22;2.50;;;;;;;19.61;63.58;96092.22;10542893;28;20039;-29
2022/09/16 06:20:38;;;;;;;4.03;3.10;;;;;;;19.61;63.17;96091.41;10546785;28;20444;-28
2022/09/16 06:25:39;;;;;;;3.00;2.70;;;;;;;19.55;63.49;96082.16;10559138;28;20051;-28
2022/09/16 06:30:40;;;;;;;3.23;2.47;;;;;;;19.56;63.18;96085.53;10556799;28;20032;-28
2022/09/16 06:35:41;;;;;;;3.58;2.42;;;;;;;19.53;63.46;96080.50;10554656;28;20035;-28
2022/09/16 06:40:41;;;;;;;4.67;2.20;;;;;;;19.54;63.65;96077.09;10555168;28;20054;-28
2022/09/16 06:45:42;;;;;;;3.03;2.47;;;;;;;19.53;63.63;96075.44;10551186;28;20036;-28
2022/09/16 06:50:42;;;;;;;4.27;2.57;;;;;;;19.53;63.61;96080.50;10552861;28;20036;-28
2022/09/16 06:55:42;;;;;;;3.13;2.00;;;;;;;19.54;63.51;96079.63;10558260;28;20073;-29
2022/09/16 07:00:43;;;;;;;7.17;2.27;;;;;;;19.60;63.48;96077.03;10551293;28;20028;-28
2022/09/16 07:05:54;;;;;;;2.50;2.20;;;;;;;19.66;63.23;96087.09;10554024;28;20031;-29
2022/09/16 07:11:05;;;;;;;2.45;1.85;;;;;;;19.63;63.33;96098.13;10559096;28;20032;-28
2022/09/16 07:16:08;;;;;;;2.70;2.25;;;;;;;19.60;63.66;96104.97;10551605;28;20528;-28
2022/09/16 07:21:15;;;;;;;2.75;2.17;;;;;;;19.55;63.83;96083.84;10554790;28;20156;-27
2022/09/16 07:26:19;;;;;;;;;;;;;;;19.55;63.89;96099.94;10558224;28;20487;-28
2022/09/16 07:31:28;;;;;;;6.70;2.85;;;;;;;19.54;64.04;96082.19;10554322;28;19915;-28
2022/09/16 07:36:32;;;;;;;5.72;2.95;;;;;;;19.53;64.01;96088.97;10554195;28;20023;-29
2022/09/16 07:41:38;;;;;;;3.88;2.80;;;;;;;19.53;64.00;96095.75;10554324;28;20027;-28
2022/09/16 07:46:39;;;;;;;2.17;1.98;;;;;;;19.52;64.08;96109.28;10525156;28;20070;-28
2022/09/16 07:51:39;;;;;;;3.05;2.30;;;;;;;19.50;64.32;96121.19;10550488;28;20135;-28
2022/09/16 07:56:41;;;;;;;4.33;2.20;;;;;;;19.55;63.96;96129.56;10556037;28;20078;-29
2022/09/16 08:01:41;;;;;;;3.67;2.30;;;;;;;19.59;63.89;96136.28;10560992;28;20435;-28
2022/09/16 08:06:42;;;;;;;3.10;2.13;;;;;;;19.46;64.06;96129.69;10550325;28;20047;-28
2022/09/16 08:11:42;;;;;;;2.30;1.70;;;;;;;19.52;64.04;96143.13;10553455;28;20653;-28
2022/09/16 08:16:42;;;;;;;1.63;1.53;;;;;;;19.47;63.79;96149.13;10549449;28;20031;-30
2022/09/16 08:21:43;;;;;;;1.65;1.55;;;;;;;19.45;63.69;96161.00;10550319;28;20036;-32
2022/09/16 08:26:43;;;;;;;1.60;1.30;;;;;;;19.47;63.82;96166.91;10553640;28;20047;-28
2022/09/16 08:31:44;;;;;;;2.07;1.30;;;;;;;19.45;63.24;96178.78;10552658;28;20618;-28
2022/09/16 08:36:44;;;;;;;1.67;1.20;;;;;;;19.45;63.36;96187.25;10549143;28;20024;-28
2022/09/16 08:42:12;;;;;;;0.73;0.73;;;;;;;19.42;63.17;96186.44;10552576;28;20031;-27
2022/09/16 08:47:41;;;;;;;1.60;1.00;;;;;;;19.45;63.37;96196.56;10545889;28;20070;-29
2022/09/16 08:52:43;;;;;;;2.67;0.70;;;;;;;19.45;63.12;96194.00;10547608;28;20043;-29
2022/09/16 08:57:57;;;;;;;1.10;1.00;;;;;;;19.51;63.08;96199.03;10552434;28;20403;-29
2022/09/16 09:03:06;;;;;;;1.02;0.77;;;;;;;19.49;62.96;96206.66;10548323;28;20040;-28
2022/09/16 09:08:12;;;;;;;1.63;0.88;;;;;;;19.48;62.93;96206.66;10548808;28;20050;-29
2022/09/16 09:13:31;;;;;;;1.40;1.03;;;;;;;19.42;63.11;96210.13;10537774;28;20041;-28
2022/09/16 09:19:09;;;;;;;1.63;0.75;;;;;;;19.47;62.65;96207.53;10546801;28;20487;-28
2022/09/16 09:24:18;;;;;;;1.67;0.70;;;;;;;19.44;62.67;96212.66;10476638;28;20077;-28
2022/09/16 09:29:32;;;;;;;1.90;0.85;;;;;;;19.42;62.76;96199.13;10550916;28;20404;-29
2022/09/16 09:34:54;;;;;;;4.47;1.20;;;;;;;19.41;63.23;96207.63;10531128;28;20032;-28
2022/09/16 09:40:16;;;;;;;1.63;0.90;;;;;;;19.43;62.93;96205.88;10556815;28;20111;-28
2022/09/16 09:45:31;;;;;;;1.63;0.70;;;;;;;19.41;62.82;96200.00;10550834;28;20032;-28
2022/09/16 09:50:42;;;;;;;0.93;0.80;;;;;;;19.49;62.86;96215.97;10557736;28;20054;-28
2022/09/16 09:55:43;;;;;;;1.42;0.70;;;;;;;19.48;62.55;96212.59;10559370;28;20036;-29
2022/09/16 10:00:43;;;;;;;1.42;0.93;;;;;;;19.46;62.84;96221.06;10557044;28;20038;-28
2022/09/16 10:05:45;;;;;;;2.83;0.95;;;;;;;19.47;62.61;96230.38;10554930;28;20044;-28
2022/09/16 10:11:16;;;;;;;2.85;0.98;;;;;;;19.44;62.62;96222.81;10559104;28;20035;-28
2022/09/16 10:16:27;;;;;;;1.38;0.85;;;;;;;19.36;62.64;96219.50;10550794;28;20058;-28
2022/09/16 10:22:19;;;;;;;1.75;1.25;;;;;;;19.40;62.59;96221.13;10555247;28;20028;-28
2022/09/16 10:27:37;;;;;;;2.13;0.85;;;;;;;19.41;62.43;96218.59;10534602;28;20051;-27
2022/09/16 10:32:47;;;;;;;2.70;1.40;;;;;;;19.40;62.55;96221.13;10538596;28;20035;-29
2022/09/16 10:38:01;;;;;;;2.20;0.93;;;;;;;19.44;62.62;96217.72;10557508;28;20032;-28
2022/09/16 10:43:06;;;;;;;9.32;1.80;;;;;;;19.53;62.89;96215.06;10551348;28;20571;-28
2022/09/16 10:48:13;;;;;;;6.82;1.33;;;;;;;19.53;62.68;96213.38;10556296;28;20495;-28
2022/09/16 10:53:27;;;;;;;2.28;0.98;;;;;;;19.52;62.39;96218.47;10552765;28;20032;-27
2022/09/16 10:58:27;;;;;;;1.60;0.95;;;;;;;19.47;61.98;96220.22;10556778;28;20039;-28
2022/09/16 11:04:01;;;;;;;1.77;1.23;;;;;;;19.46;62.18;96227.00;10549330;28;20567;-29
2022/09/16 11:09:36;;;;;;;6.18;1.40;;;;;;;19.43;62.46;96226.19;10547712;28;20542;-29
2022/09/16 11:14:45;;;;;;;3.55;1.30;;;;;;;19.47;62.05;96225.28;10558971;28;20061;-29
2022/09/16 11:20:00;;;;;;;8.32;0.88;;;;;;;19.39;62.27;96234.69;10536964;28;20107;-28
2022/09/16 11:25:23;;;;;;;6.35;1.35;;;;;;;19.44;62.23;96236.31;10529701;28;20158;-28
2022/09/16 11:30:24;;;;;;;3.60;1.73;;;;;;;19.42;62.02;96234.69;10556214;28;20047;-27
2022/09/16 11:35:55;;;;;;;2.38;1.50;;;;;;;19.43;62.04;96234.63;10551465;28;20038;-28
2022/09/16 11:41:05;;;;;;;5.95;1.50;;;;;;;19.45;62.04;96234.63;10551158;28;20035;-28
2022/09/16 11:46:24;;;;;;;3.38;1.67;;;;;;;19.52;61.95;96236.25;10527126;28;20028;-27
2022/09/16 11:51:52;;;;;;;3.67;1.50;;;;;;;19.48;61.75;96234.59;10540269;28;20036;-28
2022/09/16 11:56:59;;;;;;;4.57;2.30;;;;;;;19.43;62.01;96233.81;10545774;28;20039;-28
2022/09/16 12:02:37;;;;;;;2.92;2.05;;;;;;;19.44;62.09;96226.16;10546114;28;20039;-28
2022/09/16 12:07:44;;;;;;;2.53;1.90;;;;;;;19.42;62.10;96244.84;10546886;28;20039;-29
2022/09/16 12:12:51;;;;;;;4.80;1.67;;;;;;;19.43;61.95;96241.44;10540529;28;20032;-28
2022/09/16 12:17:58;;;;;;;2.17;1.70;;;;;;;19.40;61.93;96232.16;10551400;28;20050;-28
2022/09/16 12:23:16;;;;;;;3.08;1.65;;;;;;;19.39;62.27;96234.69;10550581;28;20035;-28
2022/09/16 12:28:26;;;;;;;2.40;2.20;;;;;;;19.38;61.74;96248.25;10545629;28;20040;-28
2022/09/16 12:33:33;;;;;;;3.40;1.83;;;;;;;19.38;61.81;96253.31;10552827;28;20043;-27
2022/09/16 12:38:34;;;;;;;1.70;1.42;;;;;;;19.40;61.93;96247.38;10540895;28;20032;-29
2022/09/16 12:43:53;;;;;;;1.98;1.50;;;;;;;19.45;61.93;96239.72;10548452;28;20054;-28
2022/09/16 12:49:11;;;;;;;3.85;2.17;;;;;;;19.35;62.07;96244.03;10546521;28;20063;-28
2022/09/16 12:54:20;;;;;;;3.47;1.83;;;;;;;19.39;61.96;96249.94;10543252;28;20054;-28
2022/09/16 12:59:48;;;;;;;2.10;1.90;;;;;;;19.36;62.06;96244.88;10550078;28;20036;-28
2022/09/16 13:04:54;;;;;;;2.70;2.00;;;;;;;19.36;61.99;96249.97;10542110;28;20093;-28
2022/09/16 13:10:16;;;;;;;2.28;1.80;;;;;;;19.35;62.02;96243.22;10549389;28;20032;-28
2022/09/16 13:15:25;;;;;;;2.88;2.03;;;;;;;19.34;61.68;96241.53;10544540;28;20031;-29
2022/09/16 13:20:32;;;;;;;3.42;1.88;;;;;;;19.36;61.76;96239.81;10551156;28;20047;-28
2022/09/16 13:25:48;;;;;;;3.17;2.08;;;;;;;19.32;61.59;96228.00;10551349;28;20084;-28
2022/09/16 13:30:49;;;;;;;6.70;2.05;;;;;;;19.23;61.49;96238.25;10533544;28;20078;-27
2022/09/16 13:36:03;;;;;;;7.57;2.13;;;;;;;19.34;61.63;96229.66;10544034;28;20059;-28
2022/09/16 13:41:04;;;;;;;3.17;2.00;;;;;;;19.37;61.03;96233.88;10544330;28;20112;-28
2022/09/16 13:46:17;;;;;;;4.07;1.90;;;;;;;19.35;60.95;96240.69;10543971;28;20040;-27
2022/09/16 13:51:20;;;;;;;4.60;2.35;;;;;;;19.33;60.54;96239.88;10547736;28;20036;-27
2022/09/16 13:56:39;;;;;;;4.32;2.25;;;;;;;19.32;60.49;96235.63;10552110;28;20160;-28
2022/09/16 14:02:06;;;;;;;2.15;1.90;;;;;;;19.30;60.59;96245.81;10540837;28;20118;-27
2022/09/16 14:07:34;;;;;;;6.45;1.73;;;;;;;19.30;60.69;96245.81;10542562;28;20076;-28
2022/09/16 14:12:54;;;;;;;2.47;1.95;;;;;;;19.30;60.68;96238.19;10558179;28;20500;-29
2022/09/16 14:18:00;;;;;;;3.08;2.05;;;;;;;19.26;61.02;96243.31;10550056;28;20036;-29
2022/09/16 14:23:15;;;;;;;3.25;2.65;;;;;;;19.26;61.38;96244.13;10560186;28;20515;-28
2022/09/16 14:28:17;;;;;;;6.05;2.60;;;;;;;19.26;60.99;96238.25;10556878;28;20557;-28
2022/09/16 14:33:41;;;;;;;3.38;2.60;;;;;;;19.32;61.11;96244.09;10554142;28;20040;-27
2022/09/16 14:38:47;;;;;;;10.52;2.63;;;;;;;19.36;61.40;96244.88;10541376;28;20036;-27
2022/09/16 14:43:48;;;;;;;11.02;2.85;;;;;;;19.27;61.37;96245.00;10556616;28;20051;-29
2022/09/16 14:48:49;;;;;;;3.60;2.17;;;;;;;19.28;61.17;96242.44;10555462;28;20051;-28
2022/09/16 14:53:55;;;;;;;2.50;1.60;;;;;;;19.29;61.47;96248.34;10549507;28;20031;-28
2022/09/16 14:58:56;;;;;;;1.85;1.60;;;;;;;19.24;61.24;96245.03;10547057;28;20024;-28
2022/09/16 15:04:03;;;;;;;11.52;2.92;;;;;;;19.24;61.65;96235.72;10544385;28;20039;-28
2022/09/16 15:09:14;;;;;;;8.93;3.58;;;;;;;19.24;61.37;96243.31;10541873;28;20028;-28
2022/09/16 15:14:16;;;;;;;3.67;2.00;;;;;;;19.21;61.29;96235.75;10549607;28;20563;-28
2022/09/16 15:19:24;;;;;;;4.05;2.03;;;;;;;19.21;61.15;96245.03;10527665;28;20028;-28
2022/09/16 15:24:27;;;;;;;5.90;2.30;;;;;;;19.17;60.90;96251.81;10528151;28;20047;-28
2022/09/16 15:29:32;;;;;;;3.38;1.67;;;;;;;19.28;60.82;96252.59;10547191;28;20036;-29
2022/09/16 15:34:33;;;;;;;3.03;1.85;;;;;;;19.30;60.89;96244.94;10536727;28;20403;-28
2022/09/16 15:39:38;;;;;;;2.15;1.50;;;;;;;19.25;60.81;96246.72;10552861;28;20199;-28
2022/09/16 15:44:57;;;;;;;4.15;2.05;;;;;;;19.21;60.62;96250.13;10546349;28;20496;-29
2022/09/16 15:50:03;;;;;;;2.90;1.40;;;;;;;19.21;60.90;96239.97;10551486;28;20127;-28
2022/09/16 15:55:05;;;;;;;6.05;1.75;;;;;;;19.23;61.02;96240.78;10549728;28;20114;-29
2022/09/16 16:00:11;;;;;;;4.00;1.90;;;;;;;19.22;60.88;96226.44;10546102;28;20034;-28
2022/09/16 16:05:32;;;;;;;5.82;2.10;;;;;;;19.16;62.03;96237.44;10551133;28;20612;-27
2022/09/16 16:10:37;;;;;;;3.55;1.85;;;;;;;19.22;61.03;96239.13;10544959;28;20044;-29
2022/09/16 16:15:38;;;;;;;2.10;1.40;;;;;;;19.19;60.77;96244.22;10554214;28;20032;-28
2022/09/16 16:20:39;;;;;;;3.40;2.00;;;;;;;19.21;60.98;96240.81;10530101;28;20058;-28
2022/09/16 16:25:40;;;;;;;3.03;1.80;;;;;;;19.28;60.51;96241.59;10555840;27;20101;-28
2022/09/16 16:30:40;;;;;;;3.20;2.03;;;;;;;19.26;60.56;96239.06;10543165;28;20097;-28
2022/09/16 16:35:40;;;;;;;3.53;2.37;;;;;;;19.24;60.67;96250.13;10554249;28;20032;-27
2022/09/16 16:40:48;;;;;;;3.70;1.90;;;;;;;19.19;60.91;96251.84;10541773;28;20047;-28
2022/09/16 16:45:56;;;;;;;6.05;2.70;;;;;;;19.18;60.68;96255.22;10532899;28;20293;-28
2022/09/16 16:51:02;;;;;;;3.13;2.42;;;;;;;19.15;60.68;96251.00;10524456;28;20025;-28
2022/09/16 16:56:10;;;;;;;3.50;2.95;;;;;;;19.14;60.71;96254.41;10537174;28;20047;-28
2022/09/16 17:01:14;;;;;;;4.07;2.85;;;;;;;19.13;60.74;96247.63;10555664;28;20077;-28
2022/09/16 17:06:16;;;;;;;4.35;2.90;;;;;;;19.11;60.90;96243.44;10548501;28;20114;-28
2022/09/16 17:11:19;;;;;;;3.55;2.00;;;;;;;19.12;60.94;96240.88;10555023;28;20032;-28
2022/09/16 17:16:23;;;;;;;2.50;1.88;;;;;;;19.12;60.67;96247.66;10534140;28;20055;-28
2022/09/16 17:21:29;;;;;;;4.32;1.90;;;;;;;19.18;60.46;96250.13;10543052;28;20586;-28
2022/09/16 17:26:29;;;;;;;2.08;1.60;;;;;;;19.19;60.48;96251.84;10539595;28;20040;-28
2022/09/16 17:31:31;;;;;;;2.73;1.83;;;;;;;19.05;60.47;96244.34;10522939;28;20098;-28
2022/09/16 17:36:35;;;;;;;2.95;1.83;;;;;;;19.09;60.18;96252.75;10519471;28;20297;-28
2022/09/16 17:41:36;;;;;;;4.53;2.40;;;;;;;19.09;60.22;96252.75;10531051;28;20028;-28
2022/09/16 17:46:37;;;;;;;4.10;2.13;;;;;;;19.10;60.06;96259.50;10519068;28;20123;-28
2022/09/16 17:51:38;;;;;;;2.22;1.63;;;;;;;19.08;59.73;96261.25;10531426;28;20063;-28
2022/09/16 17:56:41;;;;;;;3.95;1.80;;;;;;;19.11;59.88;96253.59;10536674;28;20116;-28
2022/09/16 18:01:41;;;;;;;3.47;1.60;;;;;;;19.43;59.84;96265.09;10528304;28;20035;-27
2022/09/16 18:06:45;;;;;;;3.23;1.73;;;;;;;19.55;59.34;96257.38;10544331;28;20043;-28
2022/09/16 18:11:46;;;;;;;2.13;1.60;;;;;;;19.71;61.16;96252.94;10560450;28;20349;-28
2022/09/16 18:16:46;;;;;;;4.05;1.70;;;;;;;19.82;61.01;96251.09;10560800;28;20019;-29
2022/09/16 18:21:46;;;;;;;4.95;2.30;;;;;;;19.86;59.94;96253.56;10558677;28;20040;-28
2022/09/16 18:26:48;;;;;;;2.67;1.80;;;;;;;19.87;59.27;96269.66;10559413;28;20170;-28
2022/09/16 18:31:48;;;;;;;2.63;1.52;;;;;;;19.89;59.43;96298.44;10543509;28;20113;-28
2022/09/16 18:36:49;;;;;;;2.97;1.90;;;;;;;19.94;59.43;96301.75;10554728;27;20638;-27
2022/09/16 18:41:49;;;;;;;1.73;1.40;;;;;;;19.98;59.58;96298.31;10557185;28;20110;-28
2022/09/16 18:46:52;;;;;;;3.10;1.40;;;;;;;20.00;59.79;96306.78;10556192;27;20058;-28
2022/09/16 18:51:52;;;;;;;3.85;1.55;;;;;;;20.05;59.71;96310.97;10551759;28;20483;-28
2022/09/16 18:56:55;;;;;;;6.45;1.90;;;;;;;20.08;60.32;96310.09;10564301;27;20035;-29
2022/09/16 19:01:57;;;;;;;3.30;1.58;;;;;;;20.10;60.81;96319.38;10556210;28;20039;-28
2022/09/16 19:07:06;;;;;;;4.03;1.55;;;;;;;20.11;59.82;96322.75;10554266;28;20556;-28
2022/09/16 19:12:11;;;;;;;2.45;1.67;;;;;;;20.12;59.99;96326.97;10552973;28;20045;-28
2022/09/16 19:17:11;;;;;;;2.53;1.52;;;;;;;20.09;59.94;96327.03;10534026;28;20052;-28
2022/09/16 19:22:12;;;;;;;2.57;1.47;;;;;;;20.05;60.01;96330.44;10522760;28;20123;-28
2022/09/16 19:27:12;;;;;;;3.80;1.50;;;;;;;20.02;60.00;96328.75;10525965;28;20388;-29
2022/09/16 19:32:13;;;;;;;4.38;1.55;;;;;;;20.02;60.08;96335.56;10515202;28;20463;-29
2022/09/16 19:37:16;;;;;;;4.82;1.67;;;;;;;20.01;60.14;96336.41;10525552;28;20047;-27
2022/09/16 19:42:16;;;;;;;3.47;1.40;;;;;;;20.03;59.77;96347.38;10521476;28;20063;-28
2022/09/16 19:47:16;;;;;;;5.03;2.50;;;;;;;20.10;61.30;96333.78;10549708;28;20050;-28
2022/09/16 19:52:17;;;;;;;3.70;1.53;;;;;;;20.15;61.42;96332.00;10513926;28;20763;-28
2022/09/16 19:57:17;;;;;;;3.90;1.33;;;;;;;20.15;61.55;96339.63;10543939;28;20771;-27
2022/09/16 20:02:18;;;;;;;3.45;1.20;;;;;;;20.12;60.54;96332.91;10536281;28;20062;-28
2022/09/16 20:07:19;;;;;;;2.60;1.55;;;;;;;20.12;60.70;96347.31;10535130;28;20120;-28
2022/09/16 20:12:19;;;;;;;2.17;1.90;;;;;;;20.09;60.58;96343.09;10549472;28;20112;-28
2022/09/16 20:17:20;;;;;;;1.70;1.10;;;;;;;20.10;60.30;96347.31;10538608;28;20040;-28
2022/09/16 20:22:20;;;;;;;4.05;1.20;;;;;;;20.10;60.45;96349.03;10549727;28;20031;-28
2022/09/16 20:27:21;;;;;;;3.33;1.10;;;;;;;20.09;60.38;96349.91;10550369;28;20419;-28
2022/09/16 20:32:21;;;;;;;1.40;1.30;;;;;;;20.08;60.37;96345.69;10541650;28;20380;-28
2022/09/16 20:37:22;;;;;;;3.77;1.20;;;;;;;20.04;60.53;96346.53;10543713;28;20571;-28
2022/09/16 20:42:22;;;;;;;2.20;1.43;;;;;;;20.01;61.26;96336.41;10546915;28;20066;-28
2022/09/16 20:47:26;;;;;;;4.67;1.50;;;;;;;20.16;61.59;96348.94;10546944;28;20715;-27
2022/09/16 20:52:26;;;;;;;3.03;1.60;;;;;;;20.16;61.02;96354.88;10540152;28;20063;-28
2022/09/16 20:57:27;;;;;;;3.67;1.40;;;;;;;20.13;60.69;96357.47;10539737;28;20035;-29
2022/09/16 21:02:28;;;;;;;1.63;1.30;;;;;;;20.08;60.63;96361.75;10527300;28;20552;-28
2022/09/16 21:07:28;;;;;;;1.37;1.17;;;;;;;20.07;60.67;96364.31;10526158;28;20032;-29
2022/09/16 21:12:29;;;;;;;1.50;1.20;;;;;;;20.05;60.52;96366.03;10528572;28;20055;-29
2022/09/16 21:17:29;;;;;;;1.70;1.10;;;;;;;20.06;60.61;96372.78;10519023;28;20359;-28
2022/09/16 21:22:29;;;;;;;2.03;1.17;;;;;;;20.06;60.68;96376.19;10522744;28;20048;-28
2022/09/16 21:27:33;;;;;;;2.37;1.30;;;;;;;20.04;60.84;96374.47;10534249;28;20420;-28
2022/09/16 21:32:33;;;;;;;1.30;1.10;;;;;;;20.04;60.46;96379.56;10544764;28;20045;-27
2022/09/16 21:37:33;;;;;;;2.23;1.20;;;;;;;19.99;61.34;96359.28;10540371;28;20035;-29
2022/09/16 21:42:34;;;;;;;3.90;1.37;;;;;;;20.17;62.15;96386.22;10555830;28;20503;-29
2022/09/16 21:47:35;;;;;;;3.35;1.33;;;;;;;20.18;61.50;96382.81;10553337;28;20289;-28
2022/09/16 21:52:35;;;;;;;1.65;1.00;;;;;;;20.14;60.96;96393.88;10556764;28;20085;-28
2022/09/16 21:57:36;;;;;;;1.10;1.00;;;;;;;20.10;60.91;96392.25;10559562;28;20019;-28
2022/09/16 22:02:36;;;;;;;0.97;0.83;;;;;;;20.08;60.82;96391.44;10548219;28;20039;-28
2022/09/16 22:07:36;;;;;;;1.43;1.00;;;;;;;20.06;60.90;96393.13;10556697;28;20047;-28
2022/09/16 22:12:37;;;;;;;1.80;1.10;;;;;;;20.06;60.81;96398.19;10561727;28;20395;-28
2022/09/16 22:17:42;;;;;;;1.63;1.00;;;;;;;20.03;60.80;96393.13;10561022;28;20036;-28
2022/09/16 22:22:42;;;;;;;1.67;0.70;;;;;;;20.05;60.48;96405.00;10551747;28;20027;-28
2022/09/16 22:27:42;;;;;;;1.05;0.98;;;;;;;20.06;60.88;96408.38;10558818;28;20410;-28
2022/09/16 22:32:43;;;;;;;1.87;1.20;;;;;;;20.13;61.33;96392.19;10546198;28;20490;-28
2022/09/16 22:37:43;;;;;;;6.13;1.55;;;;;;;20.12;61.66;96390.53;10556834;28;20042;-28
2022/09/16 22:42:43;;;;;;;3.17;1.40;;;;;;;20.16;61.50;96387.06;10554876;28;20384;-28
2022/09/16 22:47:44;;;;;;;1.40;1.10;;;;;;;20.15;60.86;96390.47;10548736;28;20085;-28
2022/09/16 22:52:44;;;;;;;0.70;0.70;;;;;;;20.10;60.91;96389.69;10555745;28;20059;-28
2022/09/16 22:57:44;;;;;;;1.47;0.97;;;;;;;20.09;60.86;96385.47;10557449;28;20400;-28
2022/09/16 23:02:45;;;;;;;1.57;1.00;;;;;;;20.08;61.04;96376.19;10552055;28;20036;-29
2022/09/16 23:07:47;;;;;;;1.48;0.98;;;;;;;20.11;60.94;96379.50;10554348;28;20622;-28
2022/09/16 23:12:49;;;;;;;1.90;1.17;;;;;;;20.10;60.85;96379.53;10556810;28;20243;-28
2022/09/16 23:17:50;;;;;;;1.75;1.20;;;;;;;20.11;60.92;96383.75;10547960;28;20065;-28
2022/09/16 23:22:50;;;;;;;1.42;1.10;;;;;;;20.12;60.89;96387.97;10553216;28;20396;-28
2022/09/16 23:27:51;;;;;;;1.83;1.17;;;;;;;20.14;61.06;96381.16;10561267;28;20040;-28
2022/09/16 23:32:51;;;;;;;2.38;1.02;;;;;;;20.15;61.32;96386.25;10552319;28;20027;-28
2022/09/16 23:37:52;;;;;;;1.20;0.90;;;;;;;20.19;60.98;96389.59;10556161;28;20088;-28
2022/09/16 23:42:52;;;;;;;0.82;0.70;;;;;;;20.14;60.51;96389.66;10548362;28;20028;-28